Time;durP1;ratioP1;P1;durP2;ratioP2;P2;SDS_P1;SDS_P2;PMS_P1;PMS_P2;Temp;Humidity;BMP_temperature;BMP_pressure;BME280_temperature;BME280_humidity;BME280_pressure;Samples;Min_cycle;Max_cycle;Signal;HPM_P1;HPM_P2
2023/06/28 00:03:59;;;;;;;0.90;0.40;;;;;;;21.72;40.28;100445.78;10276460;28;20043;-60
2023/06/28 00:09:01;;;;;;;3.67;0.60;;;;;;;21.65;40.71;100439.63;10277686;28;20046;-59
2023/06/28 00:14:02;;;;;;;0.60;0.40;;;;;;;21.70;40.66;100442.47;10276459;28;20077;-58
2023/06/28 00:19:04;;;;;;;2.95;0.93;;;;;;;21.62;40.40;100444.75;10278449;28;20047;-59
2023/06/28 00:24:05;;;;;;;1.77;0.40;;;;;;;21.51;40.72;100449.22;10273121;28;20053;-58
2023/06/28 00:29:07;;;;;;;2.78;0.50;;;;;;;21.45;40.74;100452.94;10276830;28;20050;-58
2023/06/28 00:34:08;;;;;;;2.63;0.47;;;;;;;21.48;40.67;100463.38;10278399;28;20056;-59
2023/06/28 00:39:09;;;;;;;2.83;0.60;;;;;;;21.50;40.61;100467.53;10276289;28;20057;-58
2023/06/28 00:44:11;;;;;;;1.20;0.50;;;;;;;21.47;40.79;100470.75;10275964;28;20057;-58
2023/06/28 00:49:13;;;;;;;4.00;0.73;;;;;;;21.50;41.13;100470.25;10277894;28;20063;-58
2023/06/28 00:54:15;;;;;;;2.58;0.47;;;;;;;21.56;40.72;100472.03;10276538;28;20058;-58
2023/06/28 00:59:16;;;;;;;0.70;0.35;;;;;;;21.49;41.02;100476.00;10275436;28;20053;-57
2023/06/28 01:04:18;;;;;;;0.98;0.40;;;;;;;21.47;40.96;100475.41;10276947;28;20139;-58
2023/06/28 01:09:21;;;;;;;3.13;0.50;;;;;;;21.51;41.25;100471.94;10275268;28;20073;-59
2023/06/28 01:14:24;;;;;;;1.27;0.50;;;;;;;21.47;41.15;100473.50;10278365;28;20057;-59
2023/06/28 01:19:28;;;;;;;1.90;0.40;;;;;;;21.47;41.26;100473.50;10278138;28;20047;-58
2023/06/28 01:24:29;;;;;;;3.60;0.50;;;;;;;21.41;41.80;100473.63;10274610;28;20042;-57
2023/06/28 01:29:31;;;;;;;2.58;0.50;;;;;;;21.39;41.86;100476.59;10274493;28;20047;-60
2023/06/28 01:34:32;;;;;;;3.75;0.40;;;;;;;21.31;42.10;100475.09;10283818;28;20061;-59
2023/06/28 01:39:35;;;;;;;2.90;0.60;;;;;;;21.31;41.86;100477.00;10284646;28;20046;-59
2023/06/28 01:44:36;;;;;;;1.30;0.40;;;;;;;21.25;42.39;100480.69;10283740;28;20081;-57
2023/06/28 01:49:38;;;;;;;2.13;0.50;;;;;;;21.23;42.51;100472.75;10283255;28;20478;-58
2023/06/28 01:54:40;;;;;;;4.47;0.60;;;;;;;21.17;42.76;100468.25;10284487;28;20055;-59
2023/06/28 01:59:41;;;;;;;4.25;0.60;;;;;;;21.20;42.74;100471.31;10282057;28;20046;-59
2023/06/28 02:04:43;;;;;;;2.20;0.65;;;;;;;21.24;42.62;100476.31;10282865;28;20094;-59
2023/06/28 02:09:44;;;;;;;2.80;1.15;;;;;;;21.12;43.14;100479.91;10264868;28;20061;-59
2023/06/28 02:14:46;;;;;;;2.35;0.60;;;;;;;21.10;43.01;100473.84;10283518;28;21710;-59
2023/06/28 02:19:50;;;;;;;1.63;0.60;;;;;;;21.09;43.41;100485.88;10281659;28;20510;-59
2023/06/28 02:24:52;;;;;;;2.55;0.73;;;;;;;21.13;43.14;100483.44;10282996;28;20057;-59
2023/06/28 02:29:53;;;;;;;2.30;0.50;;;;;;;21.12;43.27;100479.91;10281063;28;20084;-60
2023/06/28 02:34:55;;;;;;;1.35;0.50;;;;;;;21.12;43.65;100474.44;10282082;28;20560;-60
2023/06/28 02:39:56;;;;;;;2.13;0.60;;;;;;;21.14;43.64;100469.56;10280632;28;20141;-60
2023/06/28 02:44:58;;;;;;;3.00;0.50;;;;;;;21.07;43.54;100478.97;10279927;28;20051;-59
2023/06/28 02:50:05;;;;;;;1.85;0.65;;;;;;;20.97;43.93;100485.03;10279715;28;20157;-63
2023/06/28 02:55:07;;;;;;;1.55;0.50;;;;;;;20.89;44.13;100489.00;10282246;28;20047;-63
2023/06/28 03:00:09;;;;;;;0.80;0.50;;;;;;;20.78;44.19;100482.50;10281278;28;20078;-63
2023/06/28 03:05:11;;;;;;;3.45;0.90;;;;;;;20.80;44.39;100490.44;10280977;28;20050;-64
2023/06/28 03:10:12;;;;;;;0.90;0.55;;;;;;;20.84;44.44;100485.34;10280503;28;20043;-65
2023/06/28 03:15:14;;;;;;;3.35;1.58;;;;;;;20.92;44.19;100488.50;10281639;28;20055;-62
2023/06/28 03:20:15;;;;;;;3.92;1.00;;;;;;;21.02;44.43;100487.06;10280001;28;20058;-62
2023/06/28 03:25:16;;;;;;;2.08;0.93;;;;;;;21.13;44.06;100495.25;10264971;28;20528;-63
2023/06/28 03:30:18;;;;;;;3.25;0.50;;;;;;;21.14;44.39;100496.88;10280418;28;20042;-64
2023/06/28 03:35:20;;;;;;;2.33;0.60;;;;;;;21.23;44.13;100491.03;10280241;28;20070;-61
2023/06/28 03:40:22;;;;;;;2.85;0.90;;;;;;;21.26;45.00;100490.56;10282273;28;20133;-62
2023/06/28 03:45:23;;;;;;;4.50;0.68;;;;;;;21.31;44.94;100501.63;10281143;28;20383;-62
2023/06/28 03:50:25;;;;;;;1.83;0.60;;;;;;;21.36;44.66;100498.97;10278176;28;20430;-62
2023/06/28 03:55:29;;;;;;;8.63;0.50;;;;;;;21.34;44.35;100504.66;10276086;28;20417;-62
2023/06/28 04:00:31;;;;;;;5.60;0.63;;;;;;;21.16;44.13;100510.31;10274386;28;20069;-62
2023/06/28 04:05:32;;;;;;;1.83;0.50;;;;;;;21.13;44.11;100499.84;10281697;28;20402;-62
2023/06/28 04:10:34;;;;;;;2.72;0.50;;;;;;;21.07;43.76;100496.22;10280678;28;20055;-62
2023/06/28 04:15:35;;;;;;;1.45;0.40;;;;;;;21.14;43.58;100507.81;10277161;28;20554;-62
2023/06/28 04:20:37;;;;;;;1.55;0.30;;;;;;;21.16;43.90;100505.69;10277574;28;20054;-62
2023/06/28 04:25:38;;;;;;;1.98;0.30;;;;;;;21.16;44.40;100508.41;10279942;28;20077;-61
2023/06/28 04:30:40;;;;;;;4.35;0.50;;;;;;;21.07;44.48;100518.09;10256732;28;20054;-62
2023/06/28 04:35:46;;;;;;;7.50;0.63;;;;;;;20.86;44.79;100521.44;10261798;28;20046;-61
2023/06/28 04:40:47;;;;;;;5.78;0.90;;;;;;;20.87;45.02;100513.00;10277426;28;20137;-62
2023/06/28 04:45:49;;;;;;;4.93;0.50;;;;;;;20.82;44.93;100512.06;10277357;28;20670;-62
2023/06/28 04:50:51;;;;;;;2.72;0.40;;;;;;;20.86;44.69;100513.25;10277892;28;20043;-62
2023/06/28 04:55:52;;;;;;;8.75;0.60;;;;;;;20.88;45.40;100506.47;10278843;28;20074;-62
2023/06/28 05:00:57;;;;;;;4.15;1.08;;;;;;;20.92;45.01;100509.56;10276330;28;20045;-62
2023/06/28 05:06:03;;;;;;;5.18;0.50;;;;;;;20.92;45.22;100506.81;10275497;28;20582;-62
2023/06/28 05:11:04;;;;;;;2.42;0.63;;;;;;;20.89;45.38;100504.56;10277331;28;20486;-62
2023/06/28 05:16:06;;;;;;;2.13;0.70;;;;;;;20.87;45.12;100514.91;10274489;28;20053;-63
2023/06/28 05:21:07;;;;;;;4.57;0.50;;;;;;;20.79;45.32;100511.47;10278000;28;20502;-61
2023/06/28 05:26:09;;;;;;;3.40;0.73;;;;;;;20.80;45.66;100507.66;10276459;28;20057;-61
2023/06/28 05:31:10;;;;;;;3.15;0.60;;;;;;;20.93;45.37;100508.47;10270878;28;20047;-61
2023/06/28 05:36:12;;;;;;;2.88;0.52;;;;;;;21.03;45.09;100516.91;10259624;28;20050;-62
2023/06/28 05:41:16;;;;;;;4.13;1.20;;;;;;;21.14;45.55;100509.72;10276610;28;20050;-62
2023/06/28 05:46:17;;;;;;;3.42;0.57;;;;;;;21.19;45.54;100518.06;10275907;28;20046;-62
2023/06/28 05:51:18;;;;;;;2.50;0.47;;;;;;;21.23;45.89;100519.22;10280949;28;20120;-61
2023/06/28 05:56:20;;;;;;;7.05;0.80;;;;;;;21.33;46.27;100522.16;10263982;28;20053;-64
2023/06/28 06:01:24;;;;;;;5.00;0.55;;;;;;;21.46;45.74;100515.59;10262836;28;20363;-63
2023/06/28 06:06:26;;;;;;;3.13;0.65;;;;;;;21.56;45.64;100518.53;10277706;28;20130;-62
2023/06/28 06:11:28;;;;;;;4.50;0.60;;;;;;;21.61;45.90;100520.53;10279244;28;20494;-63
2023/06/28 06:16:29;;;;;;;4.57;0.52;;;;;;;21.67;45.67;100513.25;10285778;28;20050;-62
2023/06/28 06:21:31;;;;;;;4.13;0.40;;;;;;;21.57;45.82;100514.72;10268502;28;20544;-62
2023/06/28 06:26:32;;;;;;;3.58;0.45;;;;;;;21.71;45.67;100512.50;10281839;28;20057;-63
2023/06/28 06:31:34;;;;;;;3.47;0.50;;;;;;;21.78;45.17;100520.56;10259424;28;20047;-63
2023/06/28 06:36:36;;;;;;;1.67;0.43;;;;;;;21.72;45.17;100519.66;10265523;28;20059;-63
2023/06/28 06:41:38;;;;;;;3.80;0.45;;;;;;;21.95;45.47;100512.38;10279893;28;20544;-62
2023/06/28 06:46:39;;;;;;;1.73;0.47;;;;;;;22.15;45.36;100526.41;10282712;28;20042;-62
2023/06/28 06:51:41;;;;;;;4.93;0.60;;;;;;;21.78;45.54;100529.63;10281363;28;20049;-62
2023/06/28 06:56:42;;;;;;;3.83;0.50;;;;;;;21.81;45.14;100539.22;10278715;28;20074;-62
2023/06/28 07:01:44;;;;;;;3.88;0.60;;;;;;;22.04;44.67;100538.28;10281703;28;20047;-65
2023/06/28 07:06:46;;;;;;;1.23;0.57;;;;;;;22.30;45.00;100546.94;10283155;28;20450;-66
2023/06/28 07:11:48;;;;;;;4.40;0.70;;;;;;;22.37;45.00;100553.94;10283640;28;20188;-65
2023/06/28 07:16:49;;;;;;;1.65;0.60;;;;;;;22.66;44.27;100553.81;10284113;28;20046;-65
2023/06/28 07:21:50;;;;;;;2.15;0.60;;;;;;;22.70;43.62;100541.25;10282242;28;20053;-65
2023/06/28 07:26:52;;;;;;;4.80;0.65;;;;;;;22.92;43.28;100538.53;10277532;28;20050;-66
2023/06/28 07:31:53;;;;;;;2.38;0.60;;;;;;;23.14;43.01;100535.88;10282897;28;20360;-65
2023/06/28 07:36:55;;;;;;;2.53;0.60;;;;;;;23.30;42.55;100539.63;10279809;28;20047;-65
2023/06/28 07:41:56;;;;;;;9.55;0.70;;;;;;;23.46;41.72;100535.13;10279378;28;20057;-65
2023/06/28 07:46:58;;;;;;;11.55;1.13;;;;;;;23.28;41.76;100535.47;10282767;28;20675;-65
2023/06/28 07:52:00;;;;;;;4.20;0.70;;;;;;;23.21;41.75;100529.34;10278040;28;20137;-65
2023/06/28 07:57:01;;;;;;;5.75;0.70;;;;;;;23.48;41.09;100530.22;10278463;28;20506;-64
2023/06/28 08:02:04;;;;;;;5.20;0.88;;;;;;;23.65;40.81;100523.81;10271029;28;20062;-65
2023/06/28 08:07:05;;;;;;;3.28;0.50;;;;;;;23.99;40.53;100523.59;10289677;28;20054;-65
2023/06/28 08:12:07;;;;;;;2.53;0.60;;;;;;;24.15;40.09;100528.97;10275964;28;20769;-62
2023/06/28 08:17:09;;;;;;;2.00;0.60;;;;;;;24.27;39.97;100538.94;10261020;28;20397;-61
2023/06/28 08:22:11;;;;;;;3.88;0.70;;;;;;;24.12;40.58;100536.91;10262785;28;20046;-61
2023/06/28 08:27:12;;;;;;;4.85;1.27;;;;;;;24.51;40.03;100539.44;10262282;28;20047;-61
2023/06/28 08:32:14;;;;;;;4.03;0.60;;;;;;;24.73;39.78;100531.88;10277770;28;20047;-62
2023/06/28 08:37:16;;;;;;;2.40;0.50;;;;;;;24.84;39.59;100531.94;10259711;28;20046;-63
2023/06/28 08:42:18;;;;;;;3.72;0.90;;;;;;;24.64;39.95;100524.41;10258369;28;20045;-63
2023/06/28 08:47:20;;;;;;;4.20;0.70;;;;;;;24.95;39.50;100522.66;10263209;28;20521;-64
2023/06/28 08:52:22;;;;;;;3.03;0.40;;;;;;;25.33;38.46;100507.69;10278297;28;20050;-63
2023/06/28 08:57:24;;;;;;;3.67;0.60;;;;;;;25.47;37.78;100516.25;10261619;28;20153;-62
2023/06/28 09:02:30;;;;;;;4.32;0.60;;;;;;;25.77;37.30;100520.19;10279487;28;20531;-62
2023/06/28 09:07:33;;;;;;;5.75;0.52;;;;;;;25.67;37.10;100511.91;10277691;28;20047;-63
2023/06/28 09:12:36;;;;;;;2.17;0.60;;;;;;;25.65;36.97;100517.69;10257808;28;20046;-63
2023/06/28 09:17:37;;;;;;;4.50;0.70;;;;;;;25.38;37.36;100512.41;10279656;28;20055;-65
2023/06/28 09:22:39;;;;;;;3.55;0.80;;;;;;;24.94;38.32;100520.97;10260121;28;20055;-63
2023/06/28 09:27:43;;;;;;;5.57;0.50;;;;;;;25.23;37.43;100515.09;10272729;28;20077;-62
2023/06/28 09:32:50;;;;;;;4.05;1.48;;;;;;;24.76;37.41;100518.69;10276744;28;20490;-63
2023/06/28 09:37:57;;;;;;;3.80;0.50;;;;;;;24.63;36.97;100514.50;10279386;28;20047;-63
2023/06/28 09:42:58;;;;;;;4.47;0.50;;;;;;;24.43;37.05;100527.00;10259879;28;20131;-63
2023/06/28 09:48:02;;;;;;;1.45;0.50;;;;;;;24.49;36.66;100541.59;10275733;28;20050;-62
2023/06/28 09:53:15;;;;;;;6.05;0.70;;;;;;;24.31;37.57;100535.41;10284536;28;20538;-62
2023/06/28 09:58:18;;;;;;;6.15;0.60;;;;;;;24.39;37.83;100538.75;10279838;28;20047;-62
2023/06/28 10:03:24;;;;;;;3.28;0.50;;;;;;;24.46;37.57;100529.19;10283891;28;20410;-62
2023/06/28 10:08:26;;;;;;;5.10;0.75;;;;;;;24.56;38.15;100544.97;10283652;28;20043;-65
2023/06/28 10:13:29;;;;;;;5.97;1.02;;;;;;;24.62;37.62;100535.66;10284261;28;20130;-66
2023/06/28 10:18:31;;;;;;;4.70;1.73;;;;;;;25.04;37.21;100525.69;10285428;28;20058;-65
2023/06/28 10:23:37;;;;;;;4.07;0.73;;;;;;;24.94;37.67;100520.97;10283480;28;20047;-65
2023/06/28 10:28:40;;;;;;;2.72;0.77;;;;;;;24.62;38.21;100521.91;10282390;28;20047;-65
2023/06/28 10:33:42;;;;;;;2.80;0.60;;;;;;;24.60;38.34;100515.84;10263230;28;20051;-65
2023/06/28 10:38:44;;;;;;;3.65;0.70;;;;;;;24.40;38.79;100524.75;10280764;28;20523;-62
2023/06/28 10:43:46;;;;;;;4.53;0.60;;;;;;;24.83;38.44;100511.03;10284015;28;20054;-62
2023/06/28 10:48:47;;;;;;;4.18;0.75;;;;;;;25.25;37.75;100501.88;10265095;28;20081;-60
2023/06/28 10:53:55;;;;;;;5.45;0.60;;;;;;;25.22;37.68;100505.19;10279197;28;20684;-61
2023/06/28 10:58:57;;;;;;;2.95;0.70;;;;;;;25.11;37.52;100509.78;10283931;28;20105;-61
2023/06/28 11:04:26;;;;;;;5.22;1.17;;;;;;;25.59;37.38;100491.22;10268091;28;20061;-65
2023/06/28 11:09:27;;;;;;;4.10;1.25;;;;;;;26.03;36.70;100493.50;10283384;28;20506;-64
2023/06/28 11:14:31;;;;;;;4.72;1.02;;;;;;;25.98;36.92;100485.22;10271575;28;20418;-64
2023/06/28 11:19:32;;;;;;;7.03;0.60;;;;;;;25.62;36.95;100495.38;10264629;28;20110;-65
2023/06/28 11:24:37;;;;;;;3.28;0.70;;;;;;;26.03;36.24;100490.75;10255327;28;20057;-65
2023/06/28 11:30:00;;;;;;;2.22;0.70;;;;;;;26.15;36.33;100481.41;10280074;28;20055;-65
2023/06/28 11:35:04;;;;;;;3.63;0.75;;;;;;;25.88;36.62;100477.75;10286474;28;20402;-66
2023/06/28 11:40:06;;;;;;;2.95;0.60;;;;;;;26.07;35.81;100472.56;10282970;28;20061;-65
2023/06/28 11:45:08;;;;;;;1.88;0.65;;;;;;;26.18;35.74;100472.56;10282072;28;20257;-65
2023/06/28 11:50:11;;;;;;;1.60;0.40;;;;;;;26.07;35.61;100471.75;10279459;28;20057;-65
2023/06/28 11:55:16;;;;;;;3.03;0.68;;;;;;;26.12;35.63;100478.06;10280703;28;20066;-65
2023/06/28 12:00:18;;;;;;;4.22;0.80;;;;;;;26.47;35.38;100487.38;10277786;28;20057;-65
2023/06/28 12:05:21;;;;;;;1.83;0.60;;;;;;;26.35;35.61;100480.53;10263408;28;20061;-66
2023/06/28 12:10:22;;;;;;;3.30;0.60;;;;;;;26.41;35.42;100485.75;10277283;28;20110;-65
2023/06/28 12:15:24;;;;;;;2.22;0.50;;;;;;;26.90;35.03;100478.75;10278221;28;20057;-66
2023/06/28 12:20:25;;;;;;;1.83;0.60;;;;;;;27.25;34.70;100475.03;10262579;28;20066;-65
2023/06/28 12:25:27;;;;;;;1.45;0.50;;;;;;;27.08;34.09;100472.59;10279965;28;20394;-65
2023/06/28 12:30:28;;;;;;;5.13;0.57;;;;;;;27.58;33.88;100469.03;10276796;28;20062;-65
2023/06/28 12:35:30;;;;;;;1.20;0.50;;;;;;;27.87;33.28;100464.41;10280323;28;20050;-65
2023/06/28 12:40:33;;;;;;;0.90;0.50;;;;;;;28.10;32.84;100456.47;10280124;28;20599;-66
2023/06/28 12:45:41;;;;;;;2.95;0.70;;;;;;;28.09;32.53;100449.28;10279733;28;20087;-65
2023/06/28 12:50:46;;;;;;;2.30;0.40;;;;;;;28.09;32.91;100446.53;10276666;28;20049;-65
2023/06/28 12:55:48;;;;;;;3.93;0.60;;;;;;;28.39;32.39;100448.16;10252357;28;20066;-65
2023/06/28 13:00:49;;;;;;;3.70;0.68;;;;;;;28.98;31.61;100440.56;10274396;28;20054;-65
2023/06/28 13:05:52;;;;;;;1.83;0.52;;;;;;;28.57;31.98;100434.72;10276946;28;20054;-69
2023/06/28 13:10:54;;;;;;;1.38;0.50;;;;;;;28.01;32.47;100445.22;10274610;28;20086;-66
2023/06/28 13:15:55;;;;;;;2.40;0.50;;;;;;;27.81;32.52;100439.84;10273595;28;20473;-67
2023/06/28 13:20:57;;;;;;;2.20;0.50;;;;;;;27.88;32.32;100438.44;10254591;28;20050;-67
2023/06/28 13:25:59;;;;;;;0.90;0.68;;;;;;;28.38;31.45;100435.44;10257235;28;20065;-68
2023/06/28 13:31:00;;;;;;;1.70;0.60;;;;;;;29.06;30.55;100422.47;10280561;28;20066;-68
2023/06/28 13:36:03;;;;;;;5.05;0.60;;;;;;;29.61;30.47;100413.63;10282437;28;20069;-68
2023/06/28 13:41:04;;;;;;;1.38;0.52;;;;;;;30.00;29.89;100412.44;10282468;28;20049;-68
2023/06/28 13:46:06;;;;;;;2.47;0.50;;;;;;;29.88;29.78;100417.63;10284858;28;20067;-67
2023/06/28 13:51:07;;;;;;;1.27;0.52;;;;;;;28.96;31.24;100420.66;10263780;28;20058;-69
2023/06/28 13:56:09;;;;;;;2.42;0.80;;;;;;;28.43;31.28;100421.56;10278779;28;20074;-69
2023/06/28 14:01:11;;;;;;;2.90;0.60;;;;;;;28.14;31.76;100423.53;10283760;28;20141;-69
2023/06/28 14:06:12;;;;;;;1.85;0.50;;;;;;;28.99;31.04;100419.22;10282995;28;20145;-67
2023/06/28 14:11:14;;;;;;;3.00;0.60;;;;;;;29.22;30.75;100406.47;10281806;28;20069;-67
2023/06/28 14:16:15;;;;;;;1.95;0.45;;;;;;;28.67;31.16;100407.78;10281334;28;20073;-70
2023/06/28 14:21:16;;;;;;;2.22;0.50;;;;;;;28.75;30.82;100402.69;10282273;28;20064;-71
2023/06/28 14:26:18;;;;;;;3.75;0.50;;;;;;;29.18;30.84;100388.81;10261870;28;20418;-70
2023/06/28 14:31:19;;;;;;;4.30;0.47;;;;;;;29.74;30.11;100390.72;10282389;28;20046;-70
2023/06/28 14:36:23;;;;;;;3.75;0.60;;;;;;;30.03;29.36;100386.88;10282666;28;20102;-70
2023/06/28 14:41:24;;;;;;;2.90;0.60;;;;;;;29.51;30.19;100386.09;10280258;28;20054;-69
2023/06/28 14:46:26;;;;;;;2.90;0.45;;;;;;;30.30;29.22;100380.53;10284035;28;20097;-67
2023/06/28 14:51:27;;;;;;;1.65;0.60;;;;;;;30.97;27.90;100376.41;10273519;28;20133;-70
2023/06/28 14:56:29;;;;;;;1.52;0.40;;;;;;;31.47;27.73;100378.31;10274673;28;20061;-69
2023/06/28 15:01:33;;;;;;;0.80;0.50;;;;;;;31.31;27.79;100375.06;10289555;28;20051;-72
2023/06/28 15:06:34;;;;;;;1.67;0.35;;;;;;;31.79;26.91;100368.88;10254970;28;20058;-68
2023/06/28 15:11:36;;;;;;;1.92;0.47;;;;;;;32.55;26.34;100367.91;10272579;28;20092;-68
2023/06/28 15:16:37;;;;;;;1.40;0.40;;;;;;;32.04;26.45;100369.38;10270139;28;20062;-70
2023/06/28 15:21:40;;;;;;;2.65;0.40;;;;;;;30.77;28.16;100372.94;10261938;28;20074;-68
2023/06/28 15:26:42;;;;;;;0.80;0.43;;;;;;;30.86;27.56;100370.22;10279847;28;20072;-69
2023/06/28 15:31:43;;;;;;;1.38;0.40;;;;;;;30.13;28.67;100358.94;10277767;28;20047;-69
2023/06/28 15:36:44;;;;;;;3.05;0.40;;;;;;;29.78;28.89;100365.97;10279057;28;20142;-69
2023/06/28 15:41:46;;;;;;;1.15;0.35;;;;;;;29.58;29.43;100365.22;10276562;28;20051;-68
2023/06/28 15:46:47;;;;;;;0.73;0.40;;;;;;;28.96;29.68;100364.50;10260589;28;20053;-68
2023/06/28 15:51:51;;;;;;;2.60;0.60;;;;;;;28.49;30.55;100364.25;10238913;28;1113439;-69
2023/06/28 15:56:52;;;;;;;3.40;0.95;;;;;;;28.46;30.44;100364.84;10279037;28;20050;-70
2023/06/28 16:01:54;;;;;;;2.10;0.85;;;;;;;28.81;29.65;100363.59;10276594;28;20070;-68
2023/06/28 16:06:55;;;;;;;2.35;0.50;;;;;;;28.84;30.04;100345.56;10273562;28;20482;-69
2023/06/28 16:11:57;;;;;;;1.23;0.50;;;;;;;28.26;30.85;100347.38;10273745;28;20514;-68
2023/06/28 16:16:58;;;;;;;0.93;0.40;;;;;;;28.18;30.96;100345.28;10284657;28;20047;-76
2023/06/28 16:22:00;;;;;;;2.42;0.52;;;;;;;28.61;30.59;100333.41;10283066;28;20474;-75
2023/06/28 16:27:01;;;;;;;1.48;0.50;;;;;;;28.72;30.25;100336.88;10269799;28;20051;-75
2023/06/28 16:32:03;;;;;;;1.02;0.40;;;;;;;28.63;30.61;100337.56;10254601;28;20047;-75
2023/06/28 16:37:05;;;;;;;1.95;0.32;;;;;;;28.95;30.21;100338.75;10272669;28;20050;-76
2023/06/28 16:42:07;;;;;;;1.40;0.40;;;;;;;29.35;29.99;100333.72;10266687;28;20098;-75
2023/06/28 16:47:09;;;;;;;2.28;0.40;;;;;;;29.48;29.58;100334.06;10251961;28;20078;-77
2023/06/28 16:52:11;;;;;;;1.85;0.40;;;;;;;28.80;30.73;100337.03;10260821;28;20050;-76
2023/06/28 16:57:12;;;;;;;1.95;0.30;;;;;;;28.83;30.60;100338.38;10276027;28;20054;-75
2023/06/28 17:02:14;;;;;;;1.85;0.40;;;;;;;29.10;30.53;100343.22;10239155;28;20514;-77
2023/06/28 17:07:15;;;;;;;1.08;0.40;;;;;;;28.98;30.74;100338.16;10279577;28;20096;-75
2023/06/28 17:12:18;;;;;;;0.47;0.40;;;;;;;28.76;30.48;100330.44;10268872;28;20142;-78
2023/06/28 17:17:19;;;;;;;0.50;0.30;;;;;;;28.48;30.82;100340.50;10261579;28;20045;-73
2023/06/28 17:22:21;;;;;;;0.73;0.35;;;;;;;28.26;31.46;100344.63;10274297;28;20502;-75
2023/06/28 17:27:22;;;;;;;0.38;0.28;;;;;;;28.21;31.12;100341.09;10259406;28;20142;-75
2023/06/28 17:32:24;;;;;;;1.10;0.60;;;;;;;28.90;30.99;100327.75;10274949;28;20084;-72
2023/06/28 17:37:26;;;;;;;2.72;0.40;;;;;;;29.87;30.22;100336.44;10276038;28;20166;-74
2023/06/28 17:42:27;;;;;;;2.17;0.30;;;;;;;30.12;30.21;100340.69;10276044;28;20055;-74
2023/06/28 17:47:29;;;;;;;3.70;0.40;;;;;;;29.99;29.84;100344.25;10279010;28;20058;-75
2023/06/28 17:52:30;;;;;;;0.40;0.30;;;;;;;29.65;30.26;100345.41;10260605;28;20485;-78
2023/06/28 17:57:32;;;;;;;1.85;0.30;;;;;;;29.12;31.39;100352.09;10249807;28;20043;-73
2023/06/28 18:02:33;;;;;;;2.67;0.28;;;;;;;28.64;31.59;100349.44;10288839;28;20114;-68
2023/06/28 18:07:35;;;;;;;1.40;0.20;;;;;;;28.20;32.80;100356.00;10286618;28;20145;-79
2023/06/28 18:12:36;;;;;;;1.20;0.30;;;;;;;27.94;32.97;100367.34;10287639;28;20466;-73
2023/06/28 18:17:41;;;;;;;2.80;0.40;;;;;;;27.44;33.87;100369.44;10299493;28;20105;-75
2023/06/28 18:22:42;;;;;;;0.63;0.30;;;;;;;27.29;34.00;100375.88;10251125;28;20074;-76
2023/06/28 18:27:44;;;;;;;3.38;0.30;;;;;;;27.20;34.13;100369.31;10301029;28;20409;-72
2023/06/28 18:32:48;;;;;;;1.65;0.30;;;;;;;27.06;34.54;100369.94;10250463;28;20073;-75
2023/06/28 18:37:50;;;;;;;0.95;0.57;;;;;;;26.86;35.07;100368.13;10241434;28;20328;-76
2023/06/28 18:42:51;;;;;;;1.85;0.30;;;;;;;26.85;34.99;100374.75;10284534;28;20054;-77
2023/06/28 18:47:53;;;;;;;1.15;0.30;;;;;;;26.70;35.53;100378.44;10278302;28;20078;-72
2023/06/28 18:52:54;;;;;;;3.70;0.40;;;;;;;26.66;35.61;100369.06;10282588;28;20062;-75
2023/06/28 18:57:56;;;;;;;1.67;0.40;;;;;;;26.67;36.04;100367.13;10265358;28;20062;-75
2023/06/28 19:02:57;;;;;;;3.30;1.00;;;;;;;26.64;36.27;100368.53;10283744;28;20066;-75
2023/06/28 19:13:04;;;;;;;2.05;0.30;;;;;;;26.56;36.37;100357.22;10130186;29;20080;-75
2023/06/28 19:18:05;;;;;;;1.90;0.30;;;;;;;26.47;37.02;100351.47;10210394;23;20075;-74
2023/06/28 19:23:07;;;;;;;0.45;0.30;;;;;;;26.47;36.85;100355.06;10206349;29;20076;-75
2023/06/28 19:28:09;;;;;;;1.45;0.43;;;;;;;26.34;37.10;100358.41;10207744;28;20059;-75
2023/06/28 19:33:10;;;;;;;1.85;0.40;;;;;;;26.17;37.78;100364.25;10209605;29;20518;-75
2023/06/28 19:38:12;;;;;;;5.20;0.40;;;;;;;26.02;37.99;100361.53;10194968;29;20098;-73
2023/06/28 19:43:13;;;;;;;2.13;0.45;;;;;;;25.85;38.35;100367.31;10230091;28;20051;-73
2023/06/28 19:48:16;;;;;;;0.80;0.40;;;;;;;25.73;38.75;100367.59;10225358;29;20059;-73
2023/06/28 19:53:17;;;;;;;4.38;0.60;;;;;;;25.63;39.06;100373.13;10204585;29;20464;-76
2023/06/28 19:58:19;;;;;;;2.45;0.70;;;;;;;25.46;40.05;100373.41;10185983;29;20380;-75
2023/06/28 20:03:20;;;;;;;3.00;0.50;;;;;;;25.32;40.19;100382.19;10226376;29;20074;-76
2023/06/28 20:08:22;;;;;;;2.42;0.50;;;;;;;25.14;40.55;100383.53;10216765;29;20070;-69
2023/06/28 20:13:23;;;;;;;2.70;0.50;;;;;;;24.96;41.47;100392.28;10636927;23;20054;-77
2023/06/28 20:18:25;;;;;;;2.72;0.82;;;;;;;24.82;41.46;100382.88;10258318;28;20395;-69
2023/06/28 20:23:27;;;;;;;3.17;0.70;;;;;;;24.64;41.99;100385.00;10279756;28;20066;-71
2023/06/28 20:28:28;;;;;;;1.77;0.50;;;;;;;24.51;42.51;100385.53;10280164;28;20047;-69
2023/06/28 20:33:29;;;;;;;5.28;0.60;;;;;;;24.38;42.56;100385.97;10259956;28;20138;-69
2023/06/28 20:38:31;;;;;;;1.52;0.50;;;;;;;24.15;43.11;100385.28;10279693;28;20050;-69
2023/06/28 20:43:35;;;;;;;2.90;0.80;;;;;;;24.04;43.12;100389.91;10279319;28;20138;-69
2023/06/28 20:48:38;;;;;;;1.65;0.80;;;;;;;23.97;43.55;100392.03;10279599;28;20126;-68
2023/06/28 20:53:44;;;;;;;1.10;0.50;;;;;;;23.90;43.81;100392.28;10278094;28;20054;-66
2023/06/28 20:58:46;;;;;;;1.85;0.63;;;;;;;23.84;43.88;100396.09;10278397;28;20047;-68
2023/06/28 21:03:49;;;;;;;2.47;0.65;;;;;;;23.71;44.42;100397.31;10277548;28;20447;-69
2023/06/28 21:08:52;;;;;;;2.45;0.40;;;;;;;23.61;44.51;100399.97;10275541;28;20043;-67
2023/06/28 21:13:54;;;;;;;1.38;0.60;;;;;;;23.56;44.64;100402.69;10255373;28;20806;-69
2023/06/28 21:18:56;;;;;;;1.58;0.63;;;;;;;23.51;44.93;100397.97;10240755;28;20077;-67
2023/06/28 21:23:57;;;;;;;4.60;1.17;;;;;;;23.43;45.36;100405.88;10242652;28;20404;-69
2023/06/28 21:28:58;;;;;;;5.32;0.90;;;;;;;23.32;45.78;100397.53;10244851;28;20407;-68
2023/06/28 21:34:00;;;;;;;2.90;1.08;;;;;;;23.18;46.43;100399.03;10242073;28;20055;-67
2023/06/28 21:39:02;;;;;;;3.28;0.93;;;;;;;23.06;47.01;100396.44;10223963;28;20447;-69
2023/06/28 21:44:04;;;;;;;4.72;1.30;;;;;;;22.99;47.13;100398.53;10242419;28;20043;-69
2023/06/28 21:49:05;;;;;;;3.90;0.90;;;;;;;22.89;47.45;100402.00;10248405;28;20055;-68
2023/06/28 21:54:07;;;;;;;3.00;0.93;;;;;;;22.75;47.79;100400.72;10247164;28;20054;-67
2023/06/28 21:59:08;;;;;;;1.73;0.85;;;;;;;22.58;48.14;100403.53;10245189;28;20070;-67
2023/06/28 22:04:10;;;;;;;4.00;0.95;;;;;;;22.52;48.33;100401.81;10247776;28;20058;-65
2023/06/28 22:09:11;;;;;;;2.10;0.70;;;;;;;22.38;48.57;100395.88;10241633;28;20058;-63
2023/06/28 22:14:14;;;;;;;2.63;0.63;;;;;;;22.31;48.60;100387.00;10241194;28;20043;-63
2023/06/28 22:19:15;;;;;;;4.40;1.00;;;;;;;22.21;48.73;100398.59;10246741;28;20043;-64
2023/06/28 22:24:17;;;;;;;2.35;0.60;;;;;;;21.91;49.58;100397.06;10253826;28;20042;-64
2023/06/28 22:29:18;;;;;;;1.58;0.88;;;;;;;21.56;50.49;100403.66;10251404;28;20050;-64
2023/06/28 22:34:20;;;;;;;2.45;1.05;;;;;;;21.44;50.66;100396.56;10249850;28;20498;-65
2023/06/28 22:39:21;;;;;;;3.47;0.80;;;;;;;21.53;50.90;100389.63;10247562;28;20058;-62
2023/06/28 22:44:22;;;;;;;4.55;1.02;;;;;;;21.57;51.01;100386.13;10245153;28;20043;-62
2023/06/28 22:49:24;;;;;;;4.28;0.90;;;;;;;21.59;50.98;100389.44;10245748;28;20039;-62
2023/06/28 22:54:26;;;;;;;4.80;1.25;;;;;;;21.54;50.92;100392.13;10243048;28;20051;-62
2023/06/28 22:59:28;;;;;;;1.77;0.98;;;;;;;21.47;51.34;100396.91;10246481;28;20053;-63
2023/06/28 23:04:29;;;;;;;2.33;0.90;;;;;;;21.42;51.57;100390.50;10246526;28;20081;-61
2023/06/28 23:09:30;;;;;;;2.22;1.13;;;;;;;21.29;51.61;100400.66;10253473;28;20055;-61
2023/06/28 23:14:32;;;;;;;4.63;1.00;;;;;;;21.26;51.71;100397.59;10231806;28;20054;-62